Time;durP1;ratioP1;P1;durP2;ratioP2;P2;SDS_P1;SDS_P2;PMS_P1;PMS_P2;Temp;Humidity;BMP_temperature;BMP_pressure;BME280_temperature;BME280_humidity;BME280_pressure;Samples;Min_cycle;Max_cycle;Signal;HPM_P1;HPM_P2
2022/05/24 00:01:06;;;;;;;1.65;1.20;;;12.00;99.90;;;;;;5092468;28;20387;-69
2022/05/24 00:03:33;;;;;;;1.85;0.80;;;12.00;99.90;;;;;;5094209;28;20047;-69
2022/05/24 00:06:00;;;;;;;1.15;0.93;;;11.90;99.90;;;;;;5093332;28;20071;-69
2022/05/24 00:08:26;;;;;;;1.33;0.73;;;11.90;99.90;;;;;;5093129;28;20468;-68
2022/05/24 00:10:54;;;;;;;1.85;0.90;;;11.90;99.90;;;;;;5092283;28;20123;-69
2022/05/24 00:13:21;;;;;;;1.23;0.85;;;11.80;99.90;;;;;;5094036;28;20393;-69
2022/05/24 00:15:48;;;;;;;1.20;0.85;;;11.80;99.90;;;;;;5092310;28;20433;-69
2022/05/24 00:18:20;;;;;;;3.03;1.00;;;11.80;99.90;;;;;;5092106;28;20040;-69
2022/05/24 00:20:50;;;;;;;1.48;1.05;;;11.80;99.90;;;;;;5092716;28;20044;-69
2022/05/24 00:23:17;;;;;;;1.70;0.90;;;11.80;99.90;;;;;;5075617;28;20047;-69
2022/05/24 00:25:46;;;;;;;1.80;1.20;;;11.80;99.90;;;;;;5058988;28;20356;-69
2022/05/24 00:28:14;;;;;;;3.10;1.10;;;11.80;99.90;;;;;;5093301;28;20487;-69
2022/05/24 00:30:41;;;;;;;2.50;1.40;;;11.80;99.90;;;;;;5075399;28;20044;-69
2022/05/24 00:33:08;;;;;;;1.85;1.30;;;11.80;99.90;;;;;;5092541;28;20040;-69
2022/05/24 00:35:35;;;;;;;3.10;1.20;;;11.80;99.90;;;;;;5092537;28;20046;-69
2022/05/24 00:38:02;;;;;;;2.00;1.38;;;11.80;99.90;;;;;;5091689;28;20055;-68
2022/05/24 00:40:38;;;;;;;2.35;1.23;;;11.80;99.90;;;;;;5091645;28;20048;-68
2022/05/24 00:43:08;;;;;;;2.38;1.33;;;11.80;99.90;;;;;;5093593;28;20043;-68
2022/05/24 00:45:38;;;;;;;1.60;1.23;;;11.70;99.90;;;;;;5058656;28;20050;-69
2022/05/24 00:48:08;;;;;;;1.52;1.10;;;11.70;99.90;;;;;;5092560;28;20445;-69
2022/05/24 00:50:38;;;;;;;1.40;1.10;;;11.70;99.90;;;;;;5058448;28;20048;-69
2022/05/24 00:53:25;;;;;;;1.40;1.20;;;11.70;99.90;;;;;;5091555;28;20044;-69
2022/05/24 00:56:18;;;;;;;1.90;1.27;;;11.70;99.90;;;;;;5093870;28;20047;-69
2022/05/24 00:58:53;;;;;;;1.88;1.25;;;11.70;99.90;;;;;;5094067;28;20391;-68
2022/05/24 01:01:38;;;;;;;2.60;1.30;;;11.70;99.90;;;;;;5079539;28;20051;-68
2022/05/24 01:04:10;;;;;;;2.50;1.27;;;11.70;99.90;;;;;;5095789;28;20090;-69
2022/05/24 01:06:37;;;;;;;2.10;1.10;;;11.70;99.90;;;;;;5095356;28;20066;-68
2022/05/24 01:09:06;;;;;;;2.05;1.50;;;11.70;99.90;;;;;;5095250;28;20040;-68
2022/05/24 01:11:36;;;;;;;1.08;0.95;;;11.70;99.90;;;;;;5094960;28;20047;-69
2022/05/24 01:14:03;;;;;;;2.95;1.42;;;11.60;99.90;;;;;;5095231;28;20047;-69
2022/05/24 01:16:30;;;;;;;2.08;1.40;;;11.70;99.90;;;;;;5078299;28;20138;-68
2022/05/24 01:18:57;;;;;;;2.53;1.13;;;11.70;99.90;;;;;;5095058;28;20127;-69
2022/05/24 01:21:24;;;;;;;2.92;1.40;;;11.70;99.90;;;;;;5096129;28;20040;-69
2022/05/24 01:24:09;;;;;;;2.50;1.30;;;11.70;99.90;;;;;;5078014;28;20502;-69
2022/05/24 01:26:42;;;;;;;1.85;1.30;;;11.70;99.90;;;;;;5078968;28;20062;-69
2022/05/24 01:29:09;;;;;;;1.98;1.33;;;11.60;99.90;;;;;;5096034;28;20048;-69
2022/05/24 01:37:08;;;;;;;1.95;1.17;;;11.60;99.90;;;;;;5080736;28;20127;-69
2022/05/24 01:39:36;;;;;;;4.25;1.60;;;11.50;99.90;;;;;;5078393;28;20044;-69
2022/05/24 01:42:03;;;;;;;2.20;1.10;;;11.50;99.90;;;;;;5094735;28;20059;-69
2022/05/24 01:44:35;;;;;;;2.88;1.15;;;11.50;99.90;;;;;;5094456;28;20444;-69
2022/05/24 01:47:02;;;;;;;1.63;1.45;;;11.50;99.90;;;;;;5078907;28;20046;-69
2022/05/24 01:49:34;;;;;;;3.08;1.33;;;11.50;99.90;;;;;;5095690;28;20051;-69
2022/05/24 01:52:32;;;;;;;1.80;1.40;;;11.40;99.90;;;;;;5061276;28;20047;-70
2022/05/24 01:55:08;;;;;;;2.40;1.23;;;11.40;99.90;;;;;;5090133;28;20043;-69
2022/05/24 01:57:40;;;;;;;2.00;1.17;;;11.40;99.90;;;;;;5093947;28;20047;-69
2022/05/24 02:00:09;;;;;;;1.88;1.00;;;11.40;99.90;;;;;;5078289;28;20044;-68
2022/05/24 02:02:36;;;;;;;2.42;1.45;;;11.40;99.90;;;;;;5077425;28;20066;-69
2022/05/24 02:05:03;;;;;;;2.30;1.30;;;11.30;99.90;;;;;;5095310;28;20044;-69
2022/05/24 02:07:31;;;;;;;1.98;1.20;;;11.30;99.90;;;;;;5094267;28;20044;-69
2022/05/24 02:09:57;;;;;;;1.83;1.08;;;11.20;99.90;;;;;;5094760;28;20044;-69
2022/05/24 02:12:38;;;;;;;2.40;1.02;;;11.20;99.90;;;;;;5094077;28;20051;-69
2022/05/24 02:15:12;;;;;;;1.52;1.13;;;11.10;99.90;;;;;;5095207;28;20040;-69
2022/05/24 02:17:48;;;;;;;1.30;1.10;;;11.10;99.90;;;;;;5077325;28;20044;-69
2022/05/24 02:20:23;;;;;;;1.30;1.10;;;11.00;99.90;;;;;;5078548;28;20066;-69
2022/05/24 02:22:50;;;;;;;1.88;1.30;;;11.00;99.90;;;;;;5094896;28;20384;-69
2022/05/24 02:25:25;;;;;;;4.00;1.30;;;10.90;99.90;;;;;;5093871;28;20040;-69
2022/05/24 02:27:53;;;;;;;1.65;1.17;;;10.90;99.90;;;;;;5077866;28;20055;-69
2022/05/24 02:30:22;;;;;;;1.75;1.10;;;10.80;99.90;;;;;;5094541;28;20044;-69
2022/05/24 02:32:49;;;;;;;1.65;1.20;;;10.80;99.90;;;;;;5077142;28;20040;-69
2022/05/24 02:35:16;;;;;;;1.48;1.23;;;10.80;99.90;;;;;;5092961;28;20126;-69
2022/05/24 02:37:43;;;;;;;2.30;1.40;;;10.80;99.90;;;;;;5094878;28;20054;-69
2022/05/24 02:42:56;;;;;;;2.85;1.20;;;10.70;99.90;;;;;;5079510;28;20464;-69
2022/05/24 02:45:23;;;;;;;2.35;1.55;;;10.70;99.90;;;;;;5076713;28;20090;-69
2022/05/24 02:47:50;;;;;;;1.60;1.00;;;10.60;99.90;;;;;;5094260;28;20459;-69
2022/05/24 02:50:17;;;;;;;1.65;1.20;;;10.60;99.90;;;;;;5092942;28;20047;-69
2022/05/24 02:52:44;;;;;;;2.10;1.00;;;10.60;99.90;;;;;;5095316;28;20430;-69
2022/05/24 02:55:11;;;;;;;1.80;1.05;;;10.70;99.90;;;;;;5095141;28;20047;-68
2022/05/24 02:57:39;;;;;;;1.27;1.00;;;10.60;99.90;;;;;;5093503;28;20126;-69
2022/05/24 03:00:13;;;;;;;1.42;0.98;;;10.60;99.90;;;;;;5092872;28;20040;-69
2022/05/24 03:02:40;;;;;;;2.88;1.00;;;10.60;99.90;;;;;;5092888;28;20467;-69
2022/05/24 03:05:10;;;;;;;2.47;0.90;;;10.70;99.90;;;;;;5093666;28;20113;-69
2022/05/24 03:10:22;;;;;;;2.47;1.05;;;10.70;99.90;;;;;;5093838;28;20048;-69
2022/05/24 03:15:36;;;;;;;2.63;0.85;;;10.80;99.90;;;;;;5094781;28;20055;-68
2022/05/24 03:18:03;;;;;;;1.38;0.90;;;10.80;99.90;;;;;;5093975;28;20047;-69
2022/05/24 03:20:30;;;;;;;1.02;0.88;;;10.80;99.90;;;;;;5093739;28;20047;-68
2022/05/24 03:22:56;;;;;;;1.35;0.90;;;10.80;99.90;;;;;;5092120;28;20467;-69
2022/05/24 03:25:23;;;;;;;2.13;1.30;;;10.80;99.90;;;;;;5093928;28;20384;-69
2022/05/24 03:27:50;;;;;;;1.27;0.90;;;10.90;99.90;;;;;;5092382;28;20047;-69
2022/05/24 03:30:18;;;;;;;1.38;0.90;;;10.90;99.90;;;;;;5093828;28;20048;-69
2022/05/24 03:32:45;;;;;;;1.45;0.93;;;10.90;99.90;;;;;;5093246;28;20048;-69
2022/05/24 03:35:12;;;;;;;1.38;0.80;;;10.90;99.90;;;;;;5094325;28;20040;-69
2022/05/24 03:37:39;;;;;;;1.38;1.05;;;10.80;99.90;;;;;;5093850;28;20055;-69
2022/05/24 03:40:06;;;;;;;1.23;0.82;;;10.90;99.90;;;;;;5092297;28;20083;-69
2022/05/24 03:42:33;;;;;;;1.50;0.90;;;10.90;99.90;;;;;;5092424;28;20036;-69
2022/05/24 03:45:00;;;;;;;1.42;0.85;;;10.90;99.90;;;;;;5092500;28;20481;-69
2022/05/24 03:47:27;;;;;;;1.00;0.80;;;10.90;99.90;;;;;;5093443;28;20395;-69
2022/05/24 03:49:54;;;;;;;1.92;0.80;;;10.90;99.90;;;;;;5093268;28;20047;-69
2022/05/24 03:52:21;;;;;;;1.70;1.30;;;11.00;99.90;;;;;;5093414;28;20090;-69
2022/05/24 03:54:48;;;;;;;1.38;1.00;;;11.00;99.90;;;;;;5093610;28;20040;-69
2022/05/24 04:00:01;;;;;;;4.00;1.40;;;11.00;99.90;;;;;;5092354;28;20058;-69
2022/05/24 04:02:27;;;;;;;2.63;1.35;;;11.00;99.90;;;;;;5092145;28;20040;-69
2022/05/24 04:04:54;;;;;;;2.78;1.23;;;11.00;99.90;;;;;;5076431;28;20048;-69
2022/05/24 04:07:21;;;;;;;3.13;1.73;;;11.00;99.90;;;;;;5093968;28;20062;-69
2022/05/24 04:09:48;;;;;;;2.33;1.27;;;11.00;99.90;;;;;;5075875;28;20367;-69
2022/05/24 04:12:15;;;;;;;4.55;2.20;;;11.00;99.90;;;;;;5093377;28;20063;-70
2022/05/24 04:14:42;;;;;;;3.10;2.10;;;10.90;99.90;;;;;;5091782;28;20047;-68
2022/05/24 04:17:09;;;;;;;24.05;18.75;;;10.90;99.90;;;;;;5093369;28;20036;-70
2022/05/24 04:19:36;;;;;;;16.50;12.07;;;10.90;99.90;;;;;;5093930;28;20044;-73
2022/05/24 04:22:03;;;;;;;3.83;2.78;;;10.80;99.90;;;;;;5092377;28;20055;-72
2022/05/24 04:24:30;;;;;;;4.38;2.22;;;10.80;99.90;;;;;;5092956;28;20040;-70
2022/05/24 04:26:57;;;;;;;2.70;1.60;;;10.80;99.90;;;;;;5075632;28;20383;-69
2022/05/24 04:29:24;;;;;;;5.75;2.22;;;10.80;99.90;;;;;;5092966;28;20467;-69
2022/05/24 04:31:51;;;;;;;2.55;1.95;;;10.70;99.90;;;;;;5093463;28;20375;-69
2022/05/24 04:34:18;;;;;;;2.70;1.50;;;10.70;99.90;;;;;;5095821;28;20086;-69
2022/05/24 04:36:45;;;;;;;3.72;1.67;;;10.70;99.90;;;;;;5096043;28;20055;-69
2022/05/24 04:39:13;;;;;;;2.45;1.63;;;10.70;99.90;;;;;;5097853;28;20047;-69
2022/05/24 04:44:26;;;;;;;6.13;2.25;;;10.70;99.90;;;;;;5095972;28;20478;-70
2022/05/24 04:47:08;;;;;;;3.38;1.90;;;10.70;99.90;;;;;;5096890;28;20044;-69
2022/05/24 04:49:39;;;;;;;3.63;1.70;;;10.70;99.90;;;;;;5096558;28;20044;-69
2022/05/24 04:52:07;;;;;;;4.85;1.83;;;10.70;99.90;;;;;;5096387;28;20040;-69
2022/05/24 04:54:34;;;;;;;2.60;1.83;;;10.70;99.90;;;;;;5095402;28;20048;-69
2022/05/24 04:57:01;;;;;;;3.47;2.78;;;10.80;99.90;;;;;;5096349;28;20044;-69
2022/05/24 04:59:28;;;;;;;4.68;2.20;;;10.80;99.90;;;;;;5096691;28;20043;-69
2022/05/24 05:01:55;;;;;;;2.72;2.17;;;10.80;99.90;;;;;;5097337;28;20355;-69
2022/05/24 05:04:23;;;;;;;2.88;2.20;;;10.80;99.90;;;;;;5095326;28;20050;-69
2022/05/24 05:06:50;;;;;;;5.07;2.03;;;10.80;99.90;;;;;;5096095;28;20055;-69
2022/05/24 05:09:17;;;;;;;3.50;2.22;;;10.90;99.90;;;;;;5061729;28;20044;-70
2022/05/24 05:11:44;;;;;;;428.30;371.02;;;10.90;99.90;;;;;;5094899;28;20040;-72
2022/05/24 05:14:11;;;;;;;25.80;23.05;;;11.00;99.90;;;;;;5095161;28;20055;-68
2022/05/24 05:16:38;;;;;;;9.90;8.57;;;11.00;99.90;;;;;;5096941;28;20059;-69
2022/05/24 05:19:10;;;;;;;8.60;6.30;;;11.10;99.90;;;;;;5094673;28;20044;-69
2022/05/24 05:21:38;;;;;;;3.97;3.28;;;11.10;99.90;;;;;;5079009;28;20063;-69
2022/05/24 05:24:06;;;;;;;4.38;2.80;;;11.10;99.90;;;;;;5078822;28;20040;-68
2022/05/24 05:26:33;;;;;;;3.42;1.98;;;11.20;99.90;;;;;;5061869;28;20127;-69
2022/05/24 05:29:00;;;;;;;3.45;2.22;;;11.20;99.90;;;;;;5096128;28;20054;-69
2022/05/24 05:31:27;;;;;;;4.40;2.42;;;11.20;99.90;;;;;;5094758;28;20055;-68
2022/05/24 05:33:58;;;;;;;3.42;2.33;;;11.20;99.90;;;;;;5096745;28;20036;-69
2022/05/24 05:36:27;;;;;;;4.22;2.33;;;11.30;99.90;;;;;;5094686;28;20070;-69
2022/05/24 05:38:54;;;;;;;6.63;2.55;;;11.30;99.90;;;;;;5096571;28;20046;-76
2022/05/24 05:41:23;;;;;;;4.32;2.13;;;11.30;99.90;;;;;;5096639;28;20463;-72
2022/05/24 05:43:50;;;;;;;4.20;2.80;;;11.40;99.90;;;;;;5094257;28;20039;-76
2022/05/24 05:46:18;;;;;;;9.68;7.68;;;11.40;99.90;;;;;;5093790;28;20058;-74
2022/05/24 05:48:45;;;;;;;8.32;5.45;;;11.50;99.90;;;;;;5077502;28;20086;-81
2022/05/24 05:51:12;;;;;;;3.50;2.40;;;11.50;99.90;;;;;;5094752;28;20379;-76
2022/05/24 05:53:40;;;;;;;3.13;2.33;;;11.50;99.90;;;;;;5078196;28;20126;-74
2022/05/24 05:56:09;;;;;;;3.60;2.90;;;11.60;99.90;;;;;;5077211;28;20047;-73
2022/05/24 05:58:36;;;;;;;;;;;11.70;99.90;;;;;;5094875;28;20127;-78
2022/05/24 06:01:03;;;;;;;4.43;3.88;;;11.80;99.90;;;;;;5096010;28;19927;-72
2022/05/24 06:03:30;;;;;;;14.02;11.45;;;12.00;99.90;;;;;;5077245;28;20036;-73
2022/05/24 06:05:59;;;;;;;6.40;3.50;;;12.00;99.90;;;;;;5094204;28;20056;-73
2022/05/24 06:08:27;;;;;;;6.57;4.10;;;12.00;99.90;;;;;;5093856;28;20044;-73
2022/05/24 06:10:54;;;;;;;5.25;3.72;;;12.10;99.90;;;;;;5095253;28;20044;-73
2022/05/24 06:13:21;;;;;;;4.65;3.30;;;12.20;99.90;;;;;;5077727;28;20464;-74
2022/05/24 06:15:49;;;;;;;4.13;3.20;;;12.30;99.90;;;;;;5094727;28;20040;-81
2022/05/24 06:18:16;;;;;;;7.07;3.95;;;12.30;99.90;;;;;;5077395;28;20051;-81
2022/05/24 06:20:43;;;;;;;3.88;2.92;;;12.40;99.90;;;;;;5095037;28;20054;-81
2022/05/24 06:23:10;;;;;;;4.47;2.70;;;12.50;99.90;;;;;;5094681;28;20051;-77
2022/05/24 06:25:39;;;;;;;4.80;3.10;;;12.50;99.90;;;;;;5094842;28;20463;-79
2022/05/24 06:28:06;;;;;;;;;;;12.50;99.90;;;;;;5078220;28;20364;-79
2022/05/24 06:30:33;;;;;;;5.85;3.42;;;12.50;99.90;;;;;;5095272;28;19942;-76
2022/05/24 06:33:00;;;;;;;3.75;2.72;;;12.40;99.90;;;;;;5076817;28;20044;-79
2022/05/24 06:35:27;;;;;;;3.90;2.72;;;12.40;99.90;;;;;;5094765;28;20051;-75
2022/05/24 06:37:54;;;;;;;3.70;2.88;;;12.40;99.90;;;;;;5093985;28;20040;-71
2022/05/24 06:40:21;;;;;;;3.90;3.13;;;12.60;99.90;;;;;;5093425;28;20071;-74
2022/05/24 06:42:48;;;;;;;3.15;2.70;;;12.60;99.90;;;;;;5093352;28;20044;-77
2022/05/24 06:45:16;;;;;;;3.50;2.50;;;12.80;99.90;;;;;;5094074;28;20044;-79
2022/05/24 06:47:43;;;;;;;5.28;2.53;;;13.10;99.90;;;;;;5094415;28;20471;-77
2022/05/24 06:50:10;;;;;;;3.08;2.78;;;13.30;99.90;;;;;;5092864;28;20055;-77
2022/05/24 06:52:37;;;;;;;2.75;2.20;;;13.50;99.90;;;;;;5092887;28;20040;-77
2022/05/24 06:55:05;;;;;;;2.50;1.85;;;13.50;99.90;;;;;;5093774;28;20055;-75
2022/05/24 06:57:32;;;;;;;2.88;2.60;;;13.60;99.90;;;;;;5075204;28;20040;-75
2022/05/24 07:02:46;;;;;;;3.58;2.08;;;13.50;99.90;;;;;;5094994;28;20123;-72
2022/05/24 07:05:14;;;;;;;5.38;2.20;;;13.40;99.90;;;;;;5094957;28;20063;-76
2022/05/24 07:07:41;;;;;;;4.00;2.50;;;13.20;99.90;;;;;;5076284;28;20052;-76
2022/05/24 07:10:10;;;;;;;4.45;2.60;;;13.10;99.90;;;;;;5093840;28;20046;-79
2022/05/24 07:12:38;;;;;;;3.60;2.28;;;13.10;99.90;;;;;;5076240;28;20044;-80
2022/05/24 07:15:05;;;;;;;3.25;2.20;;;13.00;99.90;;;;;;5093537;28;20044;-76
2022/05/24 07:17:32;;;;;;;3.70;2.20;;;12.90;99.90;;;;;;5092993;28;20040;-71
2022/05/24 07:19:59;;;;;;;3.50;2.20;;;12.80;99.90;;;;;;5076134;28;20044;-67
2022/05/24 07:22:26;;;;;;;4.05;2.70;;;12.70;99.90;;;;;;5093228;28;20040;-68
2022/05/24 07:24:53;;;;;;;4.93;2.53;;;12.60;99.90;;;;;;5092740;28;20131;-69
2022/05/24 07:27:21;;;;;;;3.90;2.50;;;12.60;99.90;;;;;;5093960;28;20044;-68
2022/05/24 07:29:48;;;;;;;3.00;2.42;;;12.60;99.90;;;;;;5092696;28;20044;-68
2022/05/24 07:32:15;;;;;;;3.67;2.22;;;12.50;99.90;;;;;;5092495;28;20417;-70
2022/05/24 07:34:42;;;;;;;4.78;2.92;;;12.50;99.90;;;;;;5076320;28;20051;-73
2022/05/24 07:37:13;;;;;;;59.40;46.30;;;12.60;99.90;;;;;;5094400;28;20131;-72
2022/05/24 07:39:40;;;;;;;10.05;8.15;;;12.80;99.90;;;;;;5076261;28;20044;-77
2022/05/24 07:47:41;;;;;;;3.67;2.53;;;13.20;99.90;;;;;;5093682;28;20074;-76
2022/05/24 07:50:08;;;;;;;4.50;2.75;;;13.20;99.90;;;;;;5093740;28;20471;-77
2022/05/24 07:52:36;;;;;;;3.00;1.95;;;13.30;99.90;;;;;;5094597;28;20051;-74
2022/05/24 07:55:03;;;;;;;3.28;2.42;;;13.40;99.90;;;;;;5094442;28;20131;-63
2022/05/24 07:57:30;;;;;;;37.60;29.73;;;13.50;99.90;;;;;;5093191;28;20040;-73
2022/05/24 08:00:04;;;;;;;5.95;4.97;;;13.80;99.90;;;;;;5093652;28;20097;-70
2022/05/24 08:02:31;;;;;;;3.72;2.70;;;14.20;99.90;;;;;;5075692;28;20063;-69
2022/05/24 08:04:58;;;;;;;3.83;2.40;;;14.30;99.90;;;;;;5093271;28;20044;-69
2022/05/24 08:07:25;;;;;;;4.30;2.33;;;14.30;99.90;;;;;;5092031;28;20051;-69
2022/05/24 08:09:52;;;;;;;9.18;2.88;;;14.00;99.90;;;;;;5097415;28;20391;-69
2022/05/24 08:12:19;;;;;;;2.75;2.17;;;13.80;99.90;;;;;;5098129;28;20137;-69
2022/05/24 08:14:46;;;;;;;3.58;2.28;;;13.60;99.90;;;;;;5097165;28;20040;-69
2022/05/24 08:17:14;;;;;;;3.40;2.10;;;13.40;99.90;;;;;;5097522;28;20048;-69
2022/05/24 08:19:41;;;;;;;6.40;2.80;;;13.30;99.90;;;;;;5097237;28;20486;-69
2022/05/24 08:22:07;;;;;;;6.18;3.10;;;13.20;99.90;;;;;;5097480;28;20036;-69
2022/05/24 08:24:34;;;;;;;4.35;2.65;;;13.10;99.90;;;;;;5097120;28;20040;-69
2022/05/24 08:27:02;;;;;;;7.10;2.70;;;13.10;99.90;;;;;;5079243;28;20479;-69
2022/05/24 08:29:28;;;;;;;3.60;2.80;;;13.20;99.90;;;;;;5097319;28;20418;-68
2022/05/24 08:31:55;;;;;;;19.17;16.80;;;13.40;99.90;;;;;;5097323;28;20379;-68
2022/05/24 08:34:22;;;;;;;3.58;2.67;;;13.70;99.90;;;;;;5095745;28;20089;-68
2022/05/24 08:36:49;;;;;;;4.72;2.45;;;14.00;99.90;;;;;;5095957;28;20048;-68
2022/05/24 08:39:16;;;;;;;3.38;1.90;;;14.30;99.90;;;;;;5096042;28;20040;-68
2022/05/24 08:42:11;;;;;;;3.40;1.90;;;14.50;99.90;;;;;;5095941;28;20058;-68
2022/05/24 08:50:17;;;;;;;2.00;1.38;;;14.60;99.90;;;;;;5082561;28;20085;-68
2022/05/24 08:52:49;;;;;;;2.10;1.55;;;14.70;99.90;;;;;;5096526;28;20047;-69
2022/05/24 08:55:16;;;;;;;3.58;1.90;;;14.70;99.90;;;;;;5095632;28;20080;-69
2022/05/24 08:57:52;;;;;;;2.10;1.60;;;14.80;99.90;;;;;;5095271;28;20491;-69
2022/05/24 09:00:21;;;;;;;2.65;1.48;;;14.90;99.90;;;;;;5095179;28;20043;-69
2022/05/24 09:02:48;;;;;;;2.22;1.30;;;14.80;99.90;;;;;;5095808;28;20043;-69
2022/05/24 09:05:19;;;;;;;2.22;1.40;;;14.80;99.90;;;;;;5095106;28;20063;-69
2022/05/24 09:08:28;;;;;;;3.70;1.45;;;14.90;99.90;;;;;;5095990;28;20043;-69
2022/05/24 09:11:19;;;;;;;1.52;1.17;;;15.00;99.90;;;;;;5095186;28;20113;-69
2022/05/24 09:14:17;;;;;;;2.50;1.48;;;15.00;99.90;;;;;;5096239;28;20036;-69
2022/05/24 09:16:52;;;;;;;2.42;1.27;;;15.10;99.90;;;;;;5096580;28;20493;-69
2022/05/24 09:19:27;;;;;;;3.63;1.85;;;15.30;99.90;;;;;;5094036;28;20044;-69
2022/05/24 09:21:54;;;;;;;3.03;1.65;;;15.40;99.90;;;;;;5078836;28;20047;-69
2022/05/24 09:24:53;;;;;;;1.77;1.23;;;15.50;99.90;;;;;;5095988;28;20044;-69
2022/05/24 09:27:22;;;;;;;1.77;1.08;;;15.40;99.90;;;;;;5091889;28;20063;-69
2022/05/24 09:29:57;;;;;;;;;;;15.40;99.90;;;;;;5096275;28;20046;-69
2022/05/24 09:32:48;;;;;;;3.45;1.10;;;15.40;99.90;;;;;;5095921;28;19939;-69
2022/05/24 09:35:15;;;;;;;1.80;0.98;;;15.50;99.90;;;;;;5096522;28;20055;-68
2022/05/24 09:37:44;;;;;;;1.20;0.90;;;15.70;99.90;;;;;;5096464;28;20044;-68
2022/05/24 09:40:22;;;;;;;1.60;1.10;;;15.80;99.90;;;;;;5094468;28;20050;-69
2022/05/24 09:42:49;;;;;;;1.40;0.90;;;15.70;99.90;;;;;;5095907;28;20040;-69
2022/05/24 09:45:18;;;;;;;3.40;1.10;;;15.60;99.90;;;;;;5094634;28;20040;-68
2022/05/24 09:47:46;;;;;;;1.98;1.33;;;15.60;99.90;;;;;;5078837;28;20040;-69
2022/05/24 09:50:24;;;;;;;1.98;1.05;;;15.40;99.90;;;;;;5095747;28;20044;-69
2022/05/24 09:53:08;;;;;;;1.83;1.17;;;15.60;99.90;;;;;;5094273;28;20051;-69
2022/05/24 09:56:01;;;;;;;1.55;1.20;;;15.90;99.90;;;;;;5096217;28;20039;-69
2022/05/24 09:58:50;;;;;;;1.40;1.00;;;16.30;99.90;;;;;;5091768;28;20040;-68
2022/05/24 10:01:50;;;;;;;1.48;1.20;;;16.50;99.90;;;;;;5078127;28;20048;-68
2022/05/24 10:04:28;;;;;;;2.17;1.00;;;16.60;99.90;;;;;;5083414;28;20475;-69
2022/05/24 10:06:56;;;;;;;2.15;1.02;;;16.50;99.90;;;;;;5094579;28;20055;-68
2022/05/24 10:09:35;;;;;;;2.17;1.33;;;16.40;99.90;;;;;;5096174;28;20040;-69
2022/05/24 10:12:05;;;;;;;1.42;0.90;;;16.30;99.90;;;;;;5094071;28;20464;-69
2022/05/24 10:14:39;;;;;;;2.30;1.20;;;16.10;99.90;;;;;;5094107;28;20391;-69
2022/05/24 10:17:09;;;;;;;1.77;0.82;;;16.10;99.90;;;;;;5078438;28;20040;-69
2022/05/24 10:19:54;;;;;;;3.38;1.02;;;16.20;99.90;;;;;;5093931;28;20039;-68
2022/05/24 10:22:54;;;;;;;1.92;1.20;;;16.30;99.90;;;;;;5094158;28;20472;-69
2022/05/24 10:25:29;;;;;;;3.58;1.27;;;16.40;99.90;;;;;;5095666;28;20039;-69
2022/05/24 10:28:34;;;;;;;1.15;0.77;;;16.40;99.90;;;;;;5093465;28;20048;-69
2022/05/24 10:31:12;;;;;;;3.28;1.00;;;16.30;99.90;;;;;;5077382;28;20044;-69
2022/05/24 10:40:12;;;;;;;1.45;1.35;;;15.80;99.90;;;;;;5082056;28;20044;-67
2022/05/24 10:43:00;;;;;;;2.25;1.27;;;15.90;99.90;;;;;;5082304;28;20491;-68
2022/05/24 10:45:49;;;;;;;1.67;1.20;;;16.10;99.90;;;;;;5094502;28;20081;-68
2022/05/24 10:48:34;;;;;;;1.90;1.13;;;16.40;99.90;;;;;;5065511;28;20056;-67
2022/05/24 10:51:29;;;;;;;2.70;1.70;;;16.60;99.90;;;;;;5094081;28;20051;-72
2022/05/24 10:54:02;;;;;;;5.70;3.85;;;16.90;99.90;;;;;;5094872;28;20051;-74
2022/05/24 10:56:39;;;;;;;2.40;1.70;;;17.20;99.90;;;;;;5093509;28;20062;-75
2022/05/24 10:59:34;;;;;;;1.83;1.25;;;17.50;99.90;;;;;;5077258;28;20135;-73
2022/05/24 11:02:13;;;;;;;2.22;0.70;;;17.90;99.90;;;;;;5094406;28;20050;-75
2022/05/24 11:04:56;;;;;;;2.55;1.42;;;17.90;99.90;;;;;;5093493;28;20126;-66
2022/05/24 11:07:23;;;;;;;1.20;1.00;;;17.70;99.90;;;;;;5093089;28;20059;-65
2022/05/24 11:09:54;;;;;;;1.75;0.93;;;17.60;99.90;;;;;;5092973;28;20067;-64
2022/05/24 11:12:29;;;;;;;3.60;1.30;;;17.50;99.90;;;;;;5077995;28;20452;-65
2022/05/24 11:15:00;;;;;;;2.78;1.00;;;17.50;99.90;;;;;;5092981;28;20384;-64
2022/05/24 11:17:27;;;;;;;2.67;0.75;;;17.60;99.90;;;;;;5076288;28;20047;-68
2022/05/24 11:19:55;;;;;;;1.00;0.90;;;17.80;99.90;;;;;;5093645;28;20047;-65
2022/05/24 11:22:44;;;;;;;1.90;0.90;;;18.00;99.90;;;;;;5092569;28;20498;-65
2022/05/24 11:25:33;;;;;;;2.55;0.90;;;18.00;99.90;;;;;;5093829;28;20040;-74
2022/05/24 11:28:00;;;;;;;1.42;0.90;;;18.00;99.90;;;;;;5093370;28;20054;-65
2022/05/24 11:30:28;;;;;;;0.80;0.70;;;17.80;99.90;;;;;;5093612;28;20048;-65
2022/05/24 11:33:06;;;;;;;4.30;1.75;;;17.60;99.90;;;;;;5093541;28;20127;-65
2022/05/24 11:35:36;;;;;;;6.75;2.00;;;17.10;99.90;;;;;;5093659;28;20063;-67
2022/05/24 11:38:10;;;;;;;4.30;1.63;;;16.50;99.90;;;;;;5077038;28;20045;-68
2022/05/24 11:40:39;;;;;;;2.95;1.00;;;15.70;99.90;;;;;;5092598;28;20040;-66
2022/05/24 11:43:10;;;;;;;1.85;0.80;;;15.00;99.90;;;;;;5092034;28;20040;-65
2022/05/24 11:45:37;;;;;;;3.22;1.40;;;14.40;99.90;;;;;;5059240;28;20491;-64
2022/05/24 11:48:07;;;;;;;49.65;39.53;;;14.00;99.90;;;;;;5092314;28;20039;-75
2022/05/24 11:50:35;;;;;;;49.00;43.80;;;13.80;99.90;;;;;;5093714;28;20052;-75
2022/05/24 11:53:40;;;;;;;8.18;5.75;;;13.70;99.90;;;;;;5093325;28;20040;-73
2022/05/24 11:56:10;;;;;;;3.75;1.95;;;13.80;99.90;;;;;;5093514;28;20109;-81
2022/05/24 11:58:41;;;;;;;2.22;1.15;;;13.90;99.90;;;;;;5093301;28;20475;-71
2022/05/24 12:01:13;;;;;;;2.78;1.00;;;14.00;99.90;;;;;;5093874;28;20062;-73
2022/05/24 12:10:04;;;;;;;1.73;0.88;;;14.20;99.90;;;;;;5093139;28;20371;-67
2022/05/24 12:12:32;;;;;;;2.00;1.05;;;14.10;99.90;;;;;;5092454;28;20364;-66
2022/05/24 12:15:15;;;;;;;1.75;1.20;;;14.10;99.90;;;;;;5091973;28;20044;-67
2022/05/24 12:17:43;;;;;;;2.42;1.33;;;14.00;99.90;;;;;;5092210;28;20048;-66
2022/05/24 12:20:35;;;;;;;1.80;1.30;;;14.00;99.90;;;;;;5076332;28;20040;-68
2022/05/24 12:23:08;;;;;;;3.30;1.58;;;14.00;99.90;;;;;;5093394;28;20040;-68
2022/05/24 12:26:04;;;;;;;3.53;2.03;;;14.10;99.90;;;;;;5094180;28;20126;-70
2022/05/24 12:28:41;;;;;;;2.30;1.00;;;14.20;99.90;;;;;;5093452;28;20044;-72
2022/05/24 12:31:17;;;;;;;2.38;1.50;;;14.50;99.90;;;;;;5093359;28;20048;-69
2022/05/24 12:34:02;;;;;;;2.33;1.38;;;14.60;99.90;;;;;;5092084;28;20432;-70
2022/05/24 12:36:44;;;;;;;4.45;2.40;;;14.80;99.90;;;;;;5091790;28;20048;-70
2022/05/24 12:39:35;;;;;;;1.45;1.13;;;15.00;99.90;;;;;;5091742;28;20085;-71
2022/05/24 12:42:06;;;;;;;2.00;1.38;;;15.20;99.90;;;;;;5091744;28;20046;-72
2022/05/24 12:44:39;;;;;;;2.92;0.98;;;15.30;99.90;;;;;;5091765;28;20040;-72
2022/05/24 12:47:06;;;;;;;1.25;0.80;;;15.50;99.90;;;;;;5092187;28;20058;-71
2022/05/24 12:49:37;;;;;;;0.60;0.60;;;15.60;99.90;;;;;;5092796;28;20051;-70
2022/05/24 12:52:12;;;;;;;1.67;1.00;;;15.70;99.90;;;;;;5058349;28;20059;-71
2022/05/24 12:55:02;;;;;;;2.28;1.20;;;15.80;99.90;;;;;;5093119;28;20051;-71
2022/05/24 12:57:28;;;;;;;;;;;15.80;99.90;;;;;;5063676;28;20050;-72
2022/05/24 12:59:57;;;;;;;1.10;1.00;;;16.00;99.90;;;;;;5096359;28;19931;-65
2022/05/24 13:02:33;;;;;;;2.38;1.30;;;16.00;99.90;;;;;;5095447;28;20073;-66
2022/05/24 13:05:06;;;;;;;1.23;0.75;;;16.20;99.90;;;;;;5095105;28;20480;-66
2022/05/24 13:07:42;;;;;;;1.25;1.00;;;16.20;99.90;;;;;;5096501;28;20044;-65
2022/05/24 13:10:25;;;;;;;1.58;0.88;;;16.40;99.90;;;;;;5096685;28;20464;-66
2022/05/24 13:13:06;;;;;;;1.65;1.00;;;16.50;99.90;;;;;;5096353;28;20143;-67
2022/05/24 13:15:39;;;;;;;1.92;0.98;;;16.60;99.90;;;;;;5095373;28;20043;-68
2022/05/24 13:18:12;;;;;;;1.77;0.95;;;16.90;99.90;;;;;;5078517;28;20132;-67
2022/05/24 13:20:47;;;;;;;1.80;1.05;;;17.20;99.90;;;;;;5096937;28;20418;-67
2022/05/24 13:23:25;;;;;;;1.77;1.27;;;17.40;99.90;;;;;;5079183;28;20046;-66
2022/05/24 13:26:12;;;;;;;3.00;1.20;;;17.20;99.90;;;;;;5094751;28;20139;-77
2022/05/24 13:28:51;;;;;;;2.97;1.73;;;17.00;99.90;;;;;;5078764;28;20357;-72
2022/05/24 13:34:26;;;;;;;3.00;1.10;;;16.70;99.90;;;;;;5095904;28;20044;-73
2022/05/24 13:36:57;;;;;;;3.28;1.10;;;16.70;99.90;;;;;;5095681;28;20055;-73
2022/05/24 13:39:43;;;;;;;4.10;1.48;;;16.60;99.90;;;;;;5095714;28;20139;-74
2022/05/24 13:42:11;;;;;;;2.63;1.45;;;16.60;99.90;;;;;;5095545;28;20068;-75
2022/05/24 13:45:14;;;;;;;1.23;0.90;;;16.50;99.90;;;;;;5095656;28;20472;-74
2022/05/24 13:47:48;;;;;;;1.10;0.88;;;16.40;99.90;;;;;;5094424;28;20127;-74
2022/05/24 13:50:40;;;;;;;2.00;0.90;;;16.40;99.90;;;;;;5062388;28;20044;-74
2022/05/24 13:53:26;;;;;;;1.15;1.00;;;16.30;99.90;;;;;;5095107;28;20383;-75
2022/05/24 13:55:58;;;;;;;3.10;2.05;;;16.40;99.90;;;;;;5095442;28;20052;-73
2022/05/24 13:58:35;;;;;;;1.45;1.02;;;16.40;99.90;;;;;;5095185;28;20044;-76
2022/05/24 14:01:06;;;;;;;3.47;1.10;;;16.60;99.90;;;;;;5094444;28;20456;-74